createdAt,value
2023-02-03T00:00:49.053Z,25.00
2023-02-03T00:03:17.339Z,27.00
2023-02-03T00:05:47.251Z,24.90
2023-02-03T00:08:15.313Z,23.80
2023-02-03T00:10:43.337Z,25.20
2023-02-03T00:13:11.392Z,25.10
2023-02-03T00:15:39.927Z,25.30
2023-02-03T00:18:08.017Z,24.50
2023-02-03T00:20:36.683Z,21.60
2023-02-03T00:23:09.482Z,17.50
2023-02-03T00:25:38.022Z,22.90
2023-02-03T00:28:06.165Z,23.10
2023-02-03T00:30:36.502Z,26.20
2023-02-03T00:33:04.984Z,25.40
2023-02-03T00:35:33.327Z,25.30
2023-02-03T00:38:01.484Z,24.00
2023-02-03T00:40:30.211Z,27.30
2023-02-03T00:42:58.633Z,22.70
2023-02-03T00:45:27.560Z,22.50
2023-02-03T00:47:55.897Z,21.70
2023-02-03T00:50:24.296Z,19.30
2023-02-03T00:52:52.583Z,19.10
2023-02-03T00:55:20.667Z,22.60
2023-02-03T00:57:49.773Z,21.40
2023-02-03T01:00:19.592Z,23.20
2023-02-03T01:02:48.141Z,23.40
2023-02-03T01:05:16.425Z,24.40
2023-02-03T01:07:47.657Z,18.00
2023-02-03T01:10:16.052Z,23.30
2023-02-03T01:12:44.209Z,15.60
2023-02-03T01:15:12.497Z,21.90
2023-02-03T01:17:40.808Z,20.20
2023-02-03T01:20:12.365Z,21.20
2023-02-03T01:22:40.654Z,26.40
2023-02-03T01:25:09.054Z,22.80
2023-02-03T01:27:38.063Z,24.10
2023-02-03T01:30:06.456Z,23.60
2023-02-03T01:32:35.895Z,24.10
2023-02-03T01:35:05.689Z,20.90
2023-02-03T01:37:34.395Z,19.30
2023-02-03T01:40:02.681Z,19.90
2023-02-03T01:42:33.317Z,18.80
2023-02-03T01:45:01.437Z,25.00
2023-02-03T01:47:42.504Z,25.10
2023-02-03T01:50:10.579Z,22.50
2023-02-03T01:52:41.718Z,22.70
2023-02-03T01:55:11.693Z,25.40
2023-02-03T01:57:54.531Z,22.90
2023-02-03T02:00:22.951Z,25.30
2023-02-03T02:02:51.372Z,23.80
2023-02-03T02:05:35.941Z,23.00
2023-02-03T02:08:05.127Z,22.70
2023-02-03T02:10:33.644Z,28.10
2023-02-03T02:13:02.965Z,26.90
2023-02-03T02:15:38.451Z,24.80
2023-02-03T02:18:15.650Z,27.20
2023-02-03T02:21:31.767Z,24.30
2023-02-03T02:24:25.555Z,31.50
2023-02-03T02:27:14.166Z,26.30
2023-02-03T02:30:27.841Z,21.00
2023-02-03T02:33:18.543Z,26.50
2023-02-03T02:36:02.638Z,25.70
2023-02-03T02:38:36.955Z,24.80
2023-02-03T02:41:48.522Z,26.40
2023-02-03T02:44:23.616Z,28.20
2023-02-03T02:46:57.324Z,27.90
2023-02-03T02:49:27.680Z,28.50
2023-02-03T02:51:55.979Z,25.90
2023-02-03T02:54:26.834Z,24.60
2023-02-03T02:56:56.861Z,26.00
2023-02-03T02:59:25.157Z,27.90
2023-02-03T03:01:53.351Z,24.00
2023-02-03T03:04:25.692Z,25.00
2023-02-03T03:07:09.344Z,30.10
2023-02-03T03:09:48.668Z,33.20
2023-02-03T03:12:22.074Z,23.60
2023-02-03T03:14:55.390Z,26.40
2023-02-03T03:17:44.536Z,25.20
2023-02-03T03:20:17.967Z,26.00
2023-02-03T03:22:49.308Z,28.70
2023-02-03T03:25:19.209Z,29.60
2023-02-03T03:27:54.187Z,23.60
2023-02-03T03:30:24.283Z,24.00
2023-02-03T03:32:52.381Z,22.60
2023-02-03T03:35:20.867Z,26.30
2023-02-03T03:38:00.661Z,25.10
2023-02-03T03:40:39.874Z,22.00
2023-02-03T03:43:16.167Z,23.00
2023-02-03T03:45:49.522Z,25.40
2023-02-03T03:48:38.029Z,22.00
2023-02-03T03:51:18.659Z,28.50
2023-02-03T03:53:47.764Z,24.10
2023-02-03T03:56:29.698Z,24.80
2023-02-03T03:58:57.760Z,23.70
2023-02-03T04:01:25.870Z,23.30
2023-02-03T04:03:58.593Z,23.20
2023-02-03T04:06:26.996Z,23.00
2023-02-03T04:08:56.229Z,27.40
2023-02-03T04:11:43.119Z,29.00
2023-02-03T04:14:13.233Z,33.90
2023-02-03T04:16:41.607Z,29.80
2023-02-03T04:19:09.682Z,21.30
2023-02-03T04:24:09.395Z,22.60
2023-02-03T04:26:37.653Z,27.80
2023-02-03T04:29:05.882Z,27.60
2023-02-03T04:31:34.877Z,25.50
2023-02-03T04:34:03.054Z,25.70
2023-02-03T04:36:31.634Z,26.00
2023-02-03T04:38:59.745Z,26.20
2023-02-03T04:41:27.884Z,23.80
2023-02-03T04:43:56.155Z,31.20
2023-02-03T04:46:24.310Z,26.70
2023-02-03T04:48:52.393Z,26.20
2023-02-03T04:51:20.723Z,26.60
2023-02-03T04:53:49.445Z,33.40
2023-02-03T04:56:17.588Z,29.10
2023-02-03T04:58:46.811Z,28.50
2023-02-03T05:01:14.894Z,35.10
2023-02-03T05:03:43.122Z,28.90
2023-02-03T05:06:11.621Z,27.30
2023-02-03T05:08:40.063Z,31.40
2023-02-03T05:11:08.157Z,32.40
2023-02-03T05:16:53.752Z,32.10
2023-02-03T05:19:20.561Z,31.20
2023-02-03T05:21:48.015Z,29.00
2023-02-03T05:24:14.717Z,29.00
2023-02-03T05:26:41.415Z,31.20
2023-02-03T05:29:09.593Z,30.70
2023-02-03T05:31:36.360Z,33.80
2023-02-03T05:34:03.374Z,35.60
2023-02-03T05:36:30.379Z,38.80
2023-02-03T05:38:57.059Z,31.60
2023-02-03T05:44:42.868Z,35.00
2023-02-03T05:47:10.807Z,30.10
2023-02-03T08:09:14.019Z,12.60
2023-02-03T08:11:40.918Z,21.00
2023-02-03T08:14:07.620Z,16.00
2023-02-03T08:16:34.390Z,14.50
2023-02-03T08:19:01.184Z,18.00
2023-02-03T08:21:28.279Z,13.60
2023-02-03T08:23:54.931Z,24.40
2023-02-03T08:26:21.820Z,18.50
2023-02-03T08:28:49.796Z,22.60
2023-02-03T08:31:16.690Z,26.10
2023-02-03T08:33:43.681Z,17.50
2023-02-03T08:36:11.024Z,14.40
2023-02-03T08:38:38.823Z,35.20
2023-02-03T08:41:13.668Z,16.20
2023-02-03T08:43:41.969Z,12.10
2023-02-03T08:46:11.188Z,11.00
2023-02-03T08:48:38.979Z,13.80
2023-02-03T08:51:10.852Z,13.00
2023-02-03T08:53:37.814Z,11.90
2023-02-03T08:56:08.690Z,18.20
2023-02-03T08:58:35.980Z,8.20
2023-02-03T09:01:09.874Z,24.10
2023-02-03T09:03:37.156Z,20.40
2023-02-03T09:06:04.539Z,42.50
2023-02-03T09:08:32.896Z,53.70
2023-02-03T09:10:59.798Z,35.50
2023-02-03T09:13:28.123Z,34.00
2023-02-03T09:15:54.914Z,15.70
2023-02-03T09:18:21.655Z,45.50
2023-02-03T09:20:49.086Z,37.80
2023-02-03T09:23:16.066Z,87.70
2023-02-03T09:25:49.441Z,76.90
2023-02-03T09:30:43.765Z,55.40
2023-02-03T09:33:10.722Z,59.00
2023-02-03T09:35:37.489Z,61.30
2023-02-03T09:38:04.290Z,20.70
2023-02-03T09:40:33.705Z,34.30
2023-02-03T09:43:06.517Z,30.50
2023-02-03T09:45:36.340Z,27.30
2023-02-03T09:48:15.032Z,51.50
2023-02-03T09:50:41.843Z,40.00
2023-02-03T09:53:30.326Z,46.20
2023-02-03T09:55:57.226Z,22.90
2023-02-03T09:58:33.339Z,20.20
2023-02-03T10:01:01.334Z,18.70
2023-02-03T10:03:35.828Z,17.30
2023-02-03T10:06:44.351Z,14.80
2023-02-03T10:09:30.238Z,17.40
2023-02-03T10:12:06.547Z,18.10
2023-02-03T10:14:55.211Z,12.70
2023-02-03T10:17:33.495Z,12.30
2023-02-03T10:20:09.319Z,32.40
2023-02-03T10:22:42.800Z,37.00
2023-02-03T10:25:20.301Z,22.00
2023-02-03T10:27:47.154Z,17.20
2023-02-03T10:30:22.414Z,17.90
2023-02-03T10:32:52.806Z,13.50
2023-02-03T10:35:21.630Z,19.10
2023-02-03T10:37:50.253Z,14.50
2023-02-03T10:40:17.294Z,13.70
2023-02-03T10:43:03.359Z,12.30
2023-02-03T10:45:31.233Z,11.70
2023-02-03T10:47:57.941Z,22.10
2023-02-03T10:50:32.162Z,20.20
2023-02-03T10:53:22.081Z,14.40
2023-02-03T10:55:51.605Z,19.80
2023-02-03T10:58:26.811Z,16.20
2023-02-03T11:00:58.414Z,12.30
2023-02-03T11:03:26.608Z,10.10
2023-02-03T11:06:11.246Z,18.80
2023-02-03T11:08:40.134Z,17.40
2023-02-03T11:11:13.768Z,24.30
2023-02-03T11:13:40.633Z,24.30
2023-02-03T11:16:12.010Z,39.00
2023-02-03T11:18:41.743Z,11.80
2023-02-03T11:21:10.490Z,13.30
2023-02-03T11:23:41.647Z,11.80
2023-02-03T11:26:15.022Z,32.30
2023-02-03T11:28:43.240Z,10.20
2023-02-03T11:31:21.542Z,10.60
2023-02-03T11:33:52.194Z,9.70
2023-02-03T11:36:18.936Z,7.70
2023-02-03T11:38:46.583Z,22.30
2023-02-03T11:41:18.320Z,19.40
2023-02-03T11:43:46.038Z,13.90
2023-02-03T11:46:13.667Z,10.40
2023-02-03T11:49:10.375Z,9.70
2023-02-03T11:51:46.106Z,10.80
2023-02-03T11:54:35.968Z,9.40
2023-02-03T11:57:16.919Z,11.00
2023-02-03T11:59:49.243Z,10.10
2023-02-03T12:02:59.382Z,13.20
2023-02-03T12:05:52.429Z,13.00
2023-02-03T12:08:37.866Z,14.80
2023-02-03T12:11:38.717Z,20.30
2023-02-03T12:14:17.109Z,19.60
2023-02-03T12:17:00.503Z,17.40
2023-02-03T12:19:38.273Z,18.20
2023-02-03T12:22:19.544Z,14.60
2023-02-03T12:24:57.527Z,17.20
2023-02-03T12:27:27.655Z,13.50
2023-02-03T12:30:00.851Z,14.00
2023-02-03T12:32:45.616Z,13.60
2023-02-03T12:35:14.688Z,12.40
2023-02-03T12:38:20.885Z,12.00
2023-02-03T12:40:52.875Z,9.10
2023-02-03T12:43:29.421Z,9.50
2023-02-03T12:46:06.006Z,10.40
2023-02-03T12:48:44.449Z,9.20
2023-02-03T12:51:18.184Z,8.60
2023-02-03T12:53:48.695Z,7.80
2023-02-03T12:56:18.119Z,8.40
2023-02-03T12:58:48.573Z,7.80
2023-02-03T13:01:38.179Z,8.50
2023-02-03T13:04:35.947Z,7.30
2023-02-03T13:07:14.959Z,7.80
2023-02-03T13:09:55.998Z,10.40
2023-02-03T13:12:28.882Z,8.10
2023-02-03T13:15:24.764Z,8.20
2023-02-03T13:17:58.926Z,12.20
2023-02-03T13:20:36.221Z,16.10
2023-02-03T13:23:10.016Z,10.60
2023-02-03T13:26:14.065Z,12.90
2023-02-03T13:29:00.138Z,12.40
2023-02-03T13:31:33.763Z,12.30
2023-02-03T13:34:00.629Z,12.10
2023-02-03T13:36:58.659Z,11.00
2023-02-03T13:39:51.048Z,12.80
2023-02-03T13:42:29.060Z,10.30
2023-02-03T13:44:58.758Z,11.40
2023-02-03T13:47:29.905Z,11.50
2023-02-03T13:50:02.485Z,6.60
2023-02-03T13:52:34.067Z,11.50
2023-02-03T13:55:00.849Z,14.70
2023-02-03T13:57:33.349Z,11.60
2023-02-03T14:00:02.914Z,8.80
2023-02-03T18:13:47.478Z,17.20
2023-02-03T18:16:16.538Z,31.80
2023-02-03T18:18:44.211Z,21.40
2023-02-03T18:21:13.395Z,19.70
2023-02-03T18:23:40.456Z,10.70
2023-02-03T18:26:08.455Z,9.70
2023-02-03T18:28:36.034Z,11.60
2023-02-03T18:31:04.472Z,10.70
2023-02-03T18:33:31.387Z,14.30
2023-02-03T18:35:58.436Z,8.50
2023-02-03T18:38:25.153Z,12.60
2023-02-03T18:40:51.987Z,10.40
2023-02-03T18:43:23.072Z,9.90
2023-02-03T18:45:49.921Z,9.70
2023-02-03T18:48:16.744Z,8.20
2023-02-03T18:50:43.675Z,10.50
2023-02-03T18:53:10.796Z,13.30
2023-02-03T18:55:41.842Z,11.30
2023-02-03T18:58:09.191Z,12.00
2023-02-03T19:00:36.767Z,17.50
2023-02-03T19:03:03.755Z,11.10
2023-02-03T19:05:31.025Z,14.50
2023-02-03T19:07:58.246Z,11.80
2023-02-03T19:10:25.175Z,12.00
2023-02-03T19:12:52.834Z,10.40
2023-02-03T19:18:21.342Z,12.10
2023-02-03T19:20:49.436Z,12.00
2023-02-03T19:23:17.616Z,14.00
2023-02-03T19:25:51.156Z,15.60
2023-02-03T19:28:29.962Z,22.10
2023-02-03T19:31:08.299Z,18.00
2023-02-03T19:33:37.907Z,17.10
2023-02-03T19:36:06.491Z,11.90
2023-02-03T19:38:35.364Z,10.90
2023-02-03T19:41:03.674Z,13.70
2023-02-03T19:43:32.671Z,14.00
2023-02-03T19:46:02.480Z,15.60
2023-02-03T19:48:30.792Z,15.70
2023-02-03T19:50:59.231Z,13.50
2023-02-03T19:53:27.504Z,16.50
2023-02-03T19:55:55.647Z,15.70
2023-02-03T19:58:24.246Z,12.70
2023-02-03T20:00:53.042Z,13.40
2023-02-03T20:03:22.928Z,14.20
2023-02-03T20:05:53.149Z,13.00
2023-02-03T20:08:21.536Z,10.30
2023-02-03T20:10:54.532Z,16.60
2023-02-03T20:13:23.814Z,11.70
2023-02-03T20:15:51.899Z,10.10
2023-02-03T20:18:30.146Z,13.40
2023-02-03T20:21:02.818Z,13.30
2023-02-03T20:23:36.415Z,11.20
2023-02-03T20:26:09.971Z,13.90
2023-02-03T20:28:38.886Z,15.60
2023-02-03T20:31:09.078Z,11.40
2023-02-03T20:33:37.270Z,11.40
2023-02-03T20:36:06.340Z,13.10
2023-02-03T20:38:35.061Z,14.50
2023-02-03T20:41:10.051Z,14.40
2023-02-03T20:43:38.845Z,17.10
2023-02-03T20:46:11.893Z,19.10
2023-02-03T20:48:40.608Z,17.70
2023-02-03T20:51:16.421Z,10.60
2023-02-03T20:53:44.975Z,14.20
2023-02-03T20:56:14.710Z,12.90
2023-02-03T20:58:43.267Z,14.60
2023-02-03T21:01:24.600Z,14.30
2023-02-03T21:04:12.080Z,10.80
2023-02-03T21:06:40.211Z,13.30
2023-02-03T21:09:12.920Z,13.50
2023-02-03T21:11:41.545Z,14.30
2023-02-03T21:14:21.374Z,12.20
2023-02-03T21:16:49.941Z,18.30
2023-02-03T21:19:36.962Z,23.40
2023-02-03T21:22:17.376Z,36.50
2023-02-03T21:24:49.794Z,25.20
2023-02-03T21:27:36.117Z,15.60
2023-02-03T21:30:28.781Z,21.90
2023-02-03T21:32:59.201Z,14.10
2023-02-03T21:35:37.521Z,14.60
2023-02-03T21:38:29.448Z,13.80
2023-02-03T21:40:59.674Z,22.60
2023-02-03T21:43:29.570Z,18.00
2023-02-03T21:45:57.822Z,17.70
2023-02-03T21:48:36.616Z,11.80
2023-02-03T21:51:20.831Z,14.90
2023-02-03T21:54:29.648Z,17.90
2023-02-03T21:56:57.908Z,11.60
2023-02-03T21:59:29.764Z,15.80
2023-02-03T22:01:58.650Z,13.40
2023-02-03T22:04:28.490Z,17.10
2023-02-03T22:06:56.737Z,12.80
2023-02-03T22:09:26.301Z,12.70
2023-02-03T22:12:14.267Z,15.00
2023-02-03T22:14:44.163Z,14.90
2023-02-03T22:17:14.253Z,13.50
2023-02-03T22:19:42.849Z,12.90
2023-02-03T22:22:11.285Z,15.90
2023-02-03T22:24:39.979Z,13.90
2023-02-03T22:27:08.826Z,14.20
2023-02-03T22:29:38.123Z,21.90
2023-02-03T22:32:07.025Z,20.50
2023-02-03T22:34:36.537Z,26.90
2023-02-03T22:37:09.667Z,50.90
2023-02-03T22:39:38.367Z,71.10
2023-02-03T22:42:10.448Z,59.80
2023-02-03T22:44:39.193Z,53.00
2023-02-03T22:47:07.753Z,30.80
2023-02-03T22:49:37.020Z,25.90
2023-02-03T22:52:05.481Z,25.90
2023-02-03T22:54:35.308Z,21.60
2023-02-03T22:57:03.721Z,19.40
2023-02-03T22:59:31.925Z,16.80
2023-02-03T23:02:01.209Z,25.60
2023-02-03T23:04:29.742Z,32.50
2023-02-03T23:06:58.479Z,35.50
2023-02-03T23:09:26.563Z,33.00
2023-02-03T23:11:56.682Z,27.80
2023-02-03T23:14:25.167Z,25.90
2023-02-03T23:16:54.316Z,28.00
2023-02-03T23:19:22.355Z,33.70
2023-02-03T23:21:50.576Z,29.30
2023-02-03T23:24:18.725Z,31.40
2023-02-03T23:26:46.795Z,33.60
2023-02-03T23:29:14.982Z,31.40
2023-02-03T23:31:43.210Z,26.90
2023-02-03T23:34:30.111Z,35.90
2023-02-03T23:37:01.409Z,66.10
2023-02-03T23:41:57.979Z,63.80
2023-02-03T23:44:26.953Z,46.30
2023-02-03T23:46:55.186Z,40.80
2023-02-03T23:49:23.623Z,37.60
2023-02-03T23:51:51.697Z,35.10
2023-02-03T23:54:19.954Z,34.20
2023-02-03T23:56:48.181Z,29.20
2023-02-03T23:59:16.278Z,19.70
